createdAt,value
2023-06-07T05:31:26.022Z,0.50
2023-06-07T05:32:26.858Z,0.50
2023-06-07T05:33:25.875Z,0.50
2023-06-07T05:34:26.825Z,0.50
2023-06-07T05:35:26.899Z,0.50
2023-06-07T05:36:26.825Z,0.34
2023-06-07T05:37:25.847Z,0.34
2023-06-07T05:38:25.799Z,0.34
2023-06-07T05:39:26.833Z,0.34
2023-06-07T05:40:25.801Z,0.34
2023-06-07T05:41:26.805Z,0.34
2023-06-07T05:42:26.785Z,0.34
2023-06-07T05:43:26.779Z,0.34
2023-06-07T05:44:25.775Z,0.34
2023-06-07T05:45:26.773Z,0.34
2023-06-07T05:46:26.814Z,0.34
2023-06-07T05:47:26.865Z,0.34
2023-06-07T05:48:25.742Z,0.34
2023-06-07T05:49:26.750Z,0.34
2023-06-07T05:50:26.725Z,0.34
2023-06-07T05:51:25.718Z,0.34
2023-06-07T05:52:26.737Z,0.34
2023-06-07T05:53:26.711Z,0.34
2023-06-07T05:54:25.707Z,0.34
2023-06-07T05:55:25.694Z,0.34
2023-06-07T05:56:26.730Z,0.34
2023-06-07T05:57:26.671Z,0.34
2023-06-07T05:58:26.686Z,0.34
2023-06-07T05:59:25.649Z,0.34
2023-06-07T06:00:26.642Z,0.34
2023-06-07T06:01:27.619Z,0.34
2023-06-07T06:02:26.815Z,0.34
2023-06-07T06:03:26.717Z,0.34
2023-06-07T06:04:26.632Z,0.34
2023-06-07T06:05:26.610Z,0.34
2023-06-07T06:06:26.617Z,0.34
2023-06-07T06:07:26.601Z,0.34
2023-06-07T06:08:26.648Z,0.34
2023-06-07T06:09:26.650Z,0.34
2023-06-07T06:10:26.860Z,0.34
2023-06-07T06:11:26.657Z,0.38
2023-06-07T06:12:26.738Z,0.46
2023-06-07T06:13:25.779Z,0.51
2023-06-07T06:14:26.827Z,0.50
2023-06-07T06:15:25.863Z,0.51
2023-06-07T06:16:26.928Z,0.52
2023-06-07T06:17:26.918Z,0.50
2023-06-07T06:18:25.929Z,0.50
2023-06-07T06:19:26.955Z,0.52
2023-06-07T06:20:25.944Z,0.57
2023-06-07T06:21:26.934Z,0.52
2023-06-07T06:22:26.925Z,0.54
2023-06-07T06:23:26.972Z,0.50
2023-06-07T06:24:25.938Z,0.51
2023-06-07T06:25:26.932Z,0.50
2023-06-07T06:26:26.062Z,0.54
2023-06-07T06:27:27.031Z,0.59
2023-06-07T06:28:26.991Z,0.63
2023-06-07T06:29:27.027Z,0.56
2023-06-07T06:30:27.037Z,0.50
2023-06-07T06:31:27.078Z,0.51
2023-06-07T06:32:26.175Z,0.50
2023-06-07T06:33:27.103Z,0.50
2023-06-07T06:34:27.182Z,0.51
2023-06-07T06:35:27.297Z,0.55
2023-06-07T06:36:27.272Z,0.60
2023-06-07T06:37:27.306Z,0.60
2023-06-07T06:38:27.364Z,0.59
2023-06-07T06:39:27.418Z,0.55
2023-06-07T06:40:27.561Z,0.50
2023-06-07T06:41:27.511Z,0.51
2023-06-07T06:42:26.564Z,0.51
2023-06-07T06:43:27.598Z,0.50
2023-06-07T06:44:27.635Z,0.50
2023-06-07T06:45:27.694Z,0.51
2023-06-07T06:46:27.724Z,0.50
2023-06-07T06:47:27.754Z,0.52
2023-06-07T06:48:27.785Z,0.56
2023-06-07T06:49:27.835Z,0.56
2023-06-07T06:50:33.028Z,0.54
2023-06-07T06:51:28.102Z,0.49
2023-06-07T06:52:27.884Z,0.40
2023-06-07T06:53:27.879Z,0.38
2023-06-07T06:54:27.861Z,0.34
2023-06-07T06:55:27.913Z,0.34
2023-06-07T06:56:28.578Z,0.38
2023-06-07T06:57:27.865Z,0.46
2023-06-07T06:58:27.839Z,0.51
2023-06-07T06:59:26.850Z,0.53
2023-06-07T07:00:27.829Z,0.53
2023-06-07T07:01:27.863Z,0.50
2023-06-07T07:02:26.910Z,0.50
2023-06-07T07:03:27.804Z,0.50
2023-06-07T07:04:27.882Z,0.50
2023-06-07T07:05:30.269Z,0.52
2023-06-07T07:06:27.782Z,0.52
2023-06-07T07:07:26.853Z,0.52
2023-06-07T07:08:27.756Z,0.50
2023-06-07T07:09:27.785Z,0.49
2023-06-07T07:10:26.751Z,0.48
2023-06-07T07:11:26.775Z,0.50
2023-06-07T07:12:27.741Z,0.50
2023-06-07T07:13:27.736Z,0.53
2023-06-07T07:14:26.759Z,0.55
2023-06-07T07:15:26.720Z,0.56
2023-06-07T07:16:26.745Z,0.61
2023-06-07T07:17:27.751Z,0.55
2023-06-07T07:18:27.702Z,0.50
2023-06-07T07:19:27.717Z,0.50
2023-06-07T07:20:26.697Z,0.51
2023-06-07T07:21:26.680Z,0.52
2023-06-07T07:22:29.000Z,0.48
2023-06-07T07:23:27.996Z,0.51
2023-06-07T07:24:27.787Z,0.52
2023-06-07T07:25:27.767Z,0.52
2023-06-07T07:26:26.780Z,0.54
2023-06-07T07:27:27.841Z,0.57
2023-06-07T07:28:27.795Z,0.57
2023-06-07T07:29:28.943Z,0.55
2023-06-07T07:30:26.783Z,0.58
2023-06-07T07:31:27.828Z,0.56
2023-06-07T07:32:27.896Z,0.54
2023-06-07T07:33:27.811Z,0.50
2023-06-07T07:34:26.885Z,0.50
2023-06-07T07:35:27.796Z,0.50
2023-06-07T07:36:27.802Z,0.51
2023-06-07T07:37:27.847Z,0.49
2023-06-07T07:38:27.832Z,0.50
2023-06-07T07:39:26.888Z,0.50
2023-06-07T07:40:26.864Z,0.52
2023-06-07T07:41:27.878Z,0.50
2023-06-07T07:42:27.852Z,0.53
2023-06-07T07:43:30.435Z,0.50
2023-06-07T07:44:27.082Z,0.50
2023-06-07T07:45:27.110Z,0.51
2023-06-07T07:46:28.625Z,0.52
2023-06-07T07:47:28.188Z,0.56
2023-06-07T07:48:28.158Z,0.63
2023-06-07T07:49:28.205Z,0.66
2023-06-07T07:50:28.214Z,0.70
2023-06-07T07:51:27.266Z,0.75
2023-06-07T07:52:28.591Z,0.74
2023-06-07T07:53:28.419Z,0.89
2023-06-07T07:54:28.398Z,0.92
2023-06-07T07:55:27.407Z,1.05
2023-06-07T07:56:28.421Z,1.21
2023-06-07T07:57:27.465Z,1.54
2023-06-07T07:58:27.521Z,1.76
2023-06-07T07:59:27.574Z,2.17
2023-06-07T08:00:28.601Z,2.33
2023-06-07T08:01:27.625Z,2.21
2023-06-07T08:02:27.735Z,2.20
2023-06-07T08:03:28.787Z,2.15
2023-06-07T08:04:27.676Z,2.44
2023-06-07T08:05:28.668Z,2.52
2023-06-07T08:06:27.752Z,2.59
2023-06-07T08:07:28.798Z,2.61
2023-06-07T08:08:28.836Z,2.69
2023-06-07T08:09:28.889Z,2.74
2023-06-07T08:10:28.998Z,2.71
2023-06-07T08:11:29.194Z,3.11
2023-06-07T08:12:29.079Z,3.16
2023-06-07T08:13:29.113Z,2.96
2023-06-07T08:14:28.159Z,2.82
2023-06-07T08:15:28.206Z,2.94
2023-06-07T08:16:29.278Z,3.15
2023-06-07T08:17:29.300Z,3.34
2023-06-07T08:18:29.298Z,3.22
2023-06-07T08:19:29.334Z,3.00
2023-06-07T08:20:29.378Z,2.94
2023-06-07T08:21:29.404Z,2.89
2023-06-07T08:22:29.416Z,2.89
2023-06-07T08:23:29.527Z,2.95
2023-06-07T08:24:29.482Z,2.88
2023-06-07T08:25:28.523Z,2.82
2023-06-07T08:26:29.550Z,2.99
2023-06-07T08:27:29.616Z,3.08
2023-06-07T08:28:29.627Z,2.97
2023-06-07T08:29:29.619Z,2.90
2023-06-07T08:30:29.649Z,2.89
2023-06-07T08:31:29.654Z,2.80
2023-06-07T08:32:28.695Z,2.76
2023-06-07T08:33:29.659Z,2.98
2023-06-07T08:34:31.850Z,3.07
2023-06-07T08:35:29.747Z,3.08
2023-06-07T08:36:29.792Z,3.09
2023-06-07T08:37:29.785Z,3.17
2023-06-07T08:38:28.766Z,3.20
2023-06-07T08:39:29.763Z,3.60
2023-06-07T08:40:29.753Z,3.06
2023-06-07T08:41:29.777Z,1.94
2023-06-07T08:42:30.124Z,2.09
2023-06-07T08:43:30.004Z,2.11
2023-06-07T08:44:29.615Z,2.91
2023-06-07T08:45:30.008Z,3.30
2023-06-07T08:46:29.014Z,4.24
2023-06-07T08:47:29.093Z,4.21
2023-06-07T08:48:29.058Z,4.42
2023-06-07T08:49:29.088Z,3.97
2023-06-07T08:50:30.120Z,3.08
2023-06-07T08:51:30.191Z,1.87
2023-06-07T08:52:30.234Z,1.43
2023-06-07T08:53:30.271Z,1.44
2023-06-07T08:54:30.322Z,1.58
2023-06-07T08:55:30.345Z,1.80
2023-06-07T08:56:30.506Z,1.89
2023-06-07T08:57:29.687Z,2.02
2023-06-07T08:58:30.510Z,2.17
2023-06-07T08:59:29.748Z,2.38
2023-06-07T09:00:29.563Z,2.61
2023-06-07T09:01:31.783Z,2.57
2023-06-07T09:02:29.646Z,2.62
2023-06-07T09:03:30.744Z,3.12
2023-06-07T09:04:30.612Z,3.22
2023-06-07T09:05:30.584Z,2.91
2023-06-07T09:06:30.576Z,3.02
2023-06-07T09:07:30.580Z,3.31
2023-06-07T09:08:30.581Z,3.78
2023-06-07T09:09:31.967Z,4.02
2023-06-07T09:10:30.554Z,4.02
2023-06-07T09:11:29.578Z,3.85
2023-06-07T09:12:30.569Z,4.17
2023-06-07T09:13:30.535Z,4.29
2023-06-07T09:14:30.520Z,4.62
2023-06-07T09:15:31.937Z,4.66
2023-06-07T09:16:29.657Z,4.68
2023-06-07T09:17:30.563Z,4.77
2023-06-07T09:18:30.545Z,4.92
2023-06-07T09:19:30.493Z,4.71
2023-06-07T09:20:30.490Z,4.80
2023-06-07T09:21:30.477Z,4.45
2023-06-07T09:22:30.512Z,4.70
2023-06-07T09:23:30.512Z,4.44
2023-06-07T09:24:30.473Z,5.00
2023-06-07T09:25:29.462Z,5.50
2023-06-07T09:26:30.461Z,5.03
2023-06-07T09:27:30.467Z,4.46
2023-06-07T09:28:29.418Z,5.27
2023-06-07T09:29:30.512Z,4.38
2023-06-07T09:30:30.414Z,4.12
2023-06-07T09:31:29.507Z,3.95
2023-06-07T09:32:32.723Z,3.96
2023-06-07T09:33:30.514Z,3.76
2023-06-07T09:34:30.395Z,3.74
2023-06-07T09:35:30.421Z,3.69
2023-06-07T09:36:29.440Z,3.33
2023-06-07T09:37:30.366Z,3.58
2023-06-07T09:38:30.375Z,3.28
2023-06-07T09:39:30.371Z,3.25
2023-06-07T09:40:29.353Z,3.03
2023-06-07T09:41:30.350Z,2.89
2023-06-07T09:42:30.357Z,3.20
2023-06-07T09:43:30.346Z,3.18
2023-06-07T09:44:29.314Z,2.89
2023-06-07T09:45:30.365Z,2.79
2023-06-07T09:46:30.354Z,3.00
2023-06-07T09:47:30.878Z,3.05
2023-06-07T09:48:30.390Z,3.03
2023-06-07T09:49:29.377Z,2.45
2023-06-07T09:50:29.273Z,2.40
2023-06-07T09:51:29.291Z,2.34
2023-06-07T09:52:31.080Z,2.56
2023-06-07T09:53:29.249Z,2.50
2023-06-07T09:54:29.265Z,3.11
2023-06-07T09:55:29.270Z,3.06
2023-06-07T09:56:29.397Z,2.06
2023-06-07T09:57:30.340Z,1.54
2023-06-07T09:58:29.342Z,1.79
2023-06-07T09:59:30.363Z,2.34
2023-06-07T10:00:30.433Z,2.39
2023-06-07T10:01:29.545Z,2.96
2023-06-07T10:02:30.721Z,2.21
2023-06-07T10:03:30.783Z,1.91
2023-06-07T10:04:29.773Z,1.58
2023-06-07T10:05:30.780Z,1.20
2023-06-07T10:06:29.802Z,1.00
2023-06-07T10:07:29.864Z,0.95
2023-06-07T10:08:30.908Z,0.95
2023-06-07T10:09:30.936Z,0.71
2023-06-07T10:10:30.930Z,0.59
2023-06-07T10:11:29.946Z,0.50
2023-06-07T10:12:31.078Z,0.54
2023-06-07T10:13:31.021Z,0.52
2023-06-07T10:14:31.035Z,0.56
2023-06-07T10:15:31.089Z,0.48
2023-06-07T10:16:30.087Z,0.57
2023-06-07T10:17:31.086Z,0.57
2023-06-07T10:18:31.144Z,0.50
2023-06-07T10:19:30.119Z,0.51
2023-06-07T10:20:31.101Z,0.50
2023-06-07T10:21:31.154Z,0.48
2023-06-07T10:22:31.138Z,0.51
2023-06-07T10:23:30.326Z,0.60
2023-06-07T10:24:31.205Z,0.59
2023-06-07T10:25:31.149Z,0.72
2023-06-07T10:26:31.155Z,0.74
2023-06-07T10:27:31.228Z,0.80
2023-06-07T10:28:31.243Z,0.82
2023-06-07T10:29:30.316Z,0.79
2023-06-07T10:30:30.340Z,0.85
2023-06-07T10:31:31.404Z,0.83
2023-06-07T10:32:30.500Z,1.00
2023-06-07T10:33:31.433Z,1.10
2023-06-07T10:34:31.454Z,1.20
2023-06-07T10:35:31.554Z,0.99
2023-06-07T10:36:30.468Z,1.09
2023-06-07T10:37:31.428Z,1.02
2023-06-07T10:38:31.466Z,0.95
2023-06-07T10:39:30.468Z,0.87
2023-06-07T10:40:31.522Z,0.84
2023-06-07T10:41:30.567Z,0.75
2023-06-07T10:42:30.605Z,0.73
2023-06-07T10:43:31.645Z,0.85
2023-06-07T10:44:30.675Z,0.88
2023-06-07T10:45:31.668Z,0.97
2023-06-07T10:46:30.861Z,1.32
2023-06-07T10:47:31.804Z,1.55
2023-06-07T10:48:31.760Z,1.63
2023-06-07T10:49:30.733Z,1.64
2023-06-07T10:50:31.725Z,1.72
2023-06-07T10:51:31.872Z,1.88
2023-06-07T10:52:30.750Z,2.05
2023-06-07T10:53:31.736Z,2.17
2023-06-07T10:54:30.780Z,2.21
2023-06-07T10:55:31.727Z,2.47
2023-06-07T10:56:31.777Z,2.39
2023-06-07T10:57:31.733Z,2.56
2023-06-07T10:58:31.786Z,2.78
2023-06-07T10:59:31.733Z,2.77
2023-06-07T11:00:30.866Z,2.90
2023-06-07T11:01:30.792Z,3.06
2023-06-07T11:02:32.045Z,3.05
2023-06-07T11:03:32.065Z,3.28
2023-06-07T11:04:30.908Z,3.52
2023-06-07T11:05:33.846Z,3.67
2023-06-07T11:06:31.759Z,3.86
2023-06-07T11:07:30.829Z,4.01
2023-06-07T11:08:30.740Z,4.18
2023-06-07T11:09:31.709Z,4.35
2023-06-07T11:10:31.794Z,4.51
2023-06-07T11:11:30.715Z,4.73
2023-06-07T11:12:30.730Z,4.95
2023-06-07T11:13:31.706Z,5.07
2023-06-07T11:14:30.757Z,5.29
2023-06-07T11:15:30.710Z,5.27
2023-06-07T11:16:31.698Z,5.40
2023-06-07T11:17:31.685Z,5.47
2023-06-07T11:18:30.689Z,5.72
2023-06-07T11:19:31.700Z,5.98
2023-06-07T11:20:31.723Z,6.13
2023-06-07T11:21:31.666Z,6.25
2023-06-07T11:22:30.629Z,6.36
2023-06-07T11:23:30.802Z,6.54
2023-06-07T11:24:31.741Z,6.49
2023-06-07T11:25:31.622Z,6.62
2023-06-07T11:26:31.620Z,6.84
2023-06-07T11:27:31.605Z,6.86
2023-06-07T11:28:30.657Z,7.00
2023-06-07T11:29:31.578Z,7.10
2023-06-07T11:30:30.568Z,7.22
2023-06-07T11:31:31.590Z,7.31
2023-06-07T11:32:32.368Z,7.44
2023-06-07T11:33:31.706Z,7.43
2023-06-07T11:34:31.576Z,7.57
2023-06-07T11:35:30.539Z,7.68
2023-06-07T11:36:30.548Z,7.72
2023-06-07T11:37:31.521Z,7.75
2023-06-07T11:38:31.525Z,7.93
2023-06-07T11:39:31.577Z,7.96
2023-06-07T11:40:30.504Z,8.10
2023-06-07T11:41:31.510Z,8.09
2023-06-07T11:42:30.486Z,8.09
2023-06-07T11:43:31.491Z,8.18
2023-06-07T11:44:31.472Z,8.27
2023-06-07T11:45:31.525Z,8.31
2023-06-07T11:46:30.499Z,8.51
2023-06-07T11:47:31.564Z,8.55
2023-06-07T11:48:31.770Z,8.59
2023-06-07T11:49:31.442Z,8.60
2023-06-07T11:50:31.420Z,8.64
2023-06-07T11:51:31.422Z,8.83
2023-06-07T11:52:31.440Z,8.74
2023-06-07T11:53:31.413Z,8.79
2023-06-07T11:54:31.389Z,8.77
2023-06-07T11:55:31.425Z,8.91
2023-06-07T11:56:31.414Z,8.93
2023-06-07T11:57:31.407Z,8.85
2023-06-07T11:58:31.479Z,8.79
2023-06-07T11:59:31.435Z,8.81
2023-06-07T12:00:30.569Z,8.77
2023-06-07T12:01:30.515Z,9.06
2023-06-07T12:02:30.576Z,8.94
2023-06-07T12:03:31.697Z,9.11
2023-06-07T12:04:30.700Z,9.11
2023-06-07T12:05:31.766Z,9.14
2023-06-07T12:06:30.832Z,9.17
2023-06-07T12:07:31.871Z,9.07
2023-06-07T12:08:31.856Z,9.23
2023-06-07T12:09:30.913Z,8.91
2023-06-07T12:10:30.980Z,9.00
2023-06-07T12:11:32.134Z,8.91
2023-06-07T12:12:32.082Z,9.32
2023-06-07T12:13:31.135Z,9.48
2023-06-07T12:14:32.181Z,8.89
2023-06-07T12:15:31.293Z,9.44
2023-06-07T12:16:31.406Z,9.20
2023-06-07T12:17:32.459Z,9.17
2023-06-07T12:18:32.457Z,8.89
2023-06-07T12:19:32.480Z,9.08
2023-06-07T12:20:31.544Z,9.38
2023-06-07T12:21:32.601Z,9.23
2023-06-07T12:22:31.676Z,9.10
2023-06-07T12:23:32.823Z,9.11
2023-06-07T12:24:32.772Z,9.33
2023-06-07T12:25:31.892Z,9.29
2023-06-07T12:26:32.915Z,8.79
2023-06-07T12:27:33.025Z,9.05
2023-06-07T12:28:33.052Z,9.26
2023-06-07T12:29:33.106Z,8.54
2023-06-07T12:30:33.049Z,9.21
2023-06-07T12:31:33.259Z,9.31
2023-06-07T12:32:32.316Z,9.21
2023-06-07T12:33:33.367Z,8.89
2023-06-07T12:34:32.404Z,9.36
2023-06-07T12:35:33.487Z,9.27
2023-06-07T12:36:32.526Z,8.95
2023-06-07T12:37:33.603Z,9.10
2023-06-07T12:38:33.651Z,8.99
2023-06-07T12:39:32.751Z,8.74
2023-06-07T12:40:32.816Z,8.53
2023-06-07T12:41:34.283Z,8.93
2023-06-07T12:42:32.924Z,8.82
2023-06-07T12:43:33.045Z,8.81
2023-06-07T12:44:34.043Z,8.82
2023-06-07T12:45:34.097Z,8.52
2023-06-07T12:46:34.205Z,8.65
2023-06-07T12:47:33.230Z,8.76
2023-06-07T12:48:33.258Z,8.92
2023-06-07T12:49:34.369Z,8.78
2023-06-07T12:50:34.372Z,8.73
2023-06-07T12:51:33.423Z,8.45
2023-06-07T12:52:34.486Z,8.56
2023-06-07T12:53:34.532Z,8.56
2023-06-07T12:54:34.569Z,8.15
2023-06-07T12:55:33.634Z,8.74
2023-06-07T12:56:33.691Z,8.00
2023-06-07T12:57:33.715Z,8.47
2023-06-07T12:58:34.777Z,8.48
2023-06-07T12:59:34.901Z,8.69
2023-06-07T13:00:34.848Z,8.66
2023-06-07T13:01:34.993Z,8.26
2023-06-07T13:02:35.015Z,7.87
2023-06-07T13:03:34.107Z,8.06
2023-06-07T13:04:35.079Z,8.23
2023-06-07T13:05:34.105Z,8.55
2023-06-07T13:06:35.142Z,8.28
2023-06-07T13:07:35.195Z,8.10
2023-06-07T13:08:35.208Z,8.18
2023-06-07T13:09:35.414Z,7.86
2023-06-07T13:10:34.273Z,8.15
2023-06-07T13:11:35.303Z,8.39
2023-06-07T13:12:34.336Z,7.46
2023-06-07T13:13:35.396Z,7.29
2023-06-07T13:14:35.485Z,6.94
2023-06-07T13:15:34.625Z,6.72
2023-06-07T13:16:34.609Z,5.73
2023-06-07T13:17:35.953Z,5.91
2023-06-07T13:18:35.665Z,5.32
2023-06-07T13:19:34.660Z,5.14
2023-06-07T13:20:35.712Z,4.96
2023-06-07T13:21:34.758Z,4.95
2023-06-07T13:22:35.815Z,4.57
2023-06-07T13:23:35.919Z,4.46
2023-06-07T13:24:35.888Z,4.40
2023-06-07T13:25:35.959Z,4.06
2023-06-07T13:26:35.964Z,3.99
2023-06-07T13:27:35.002Z,3.89
2023-06-07T13:28:36.039Z,3.67
2023-06-07T13:29:35.120Z,3.60
2023-06-07T13:30:36.127Z,3.82
2023-06-07T13:31:36.218Z,3.85
2023-06-07T13:32:35.332Z,3.99
2023-06-07T13:33:35.222Z,4.07
2023-06-07T13:34:35.263Z,4.17
2023-06-07T13:35:37.940Z,4.21
2023-06-07T13:36:35.287Z,4.30
2023-06-07T13:37:35.264Z,4.58
2023-06-07T13:38:36.265Z,4.51
2023-06-07T13:39:36.245Z,4.85
2023-06-07T13:40:36.252Z,4.83
2023-06-07T13:41:36.241Z,5.00
2023-06-07T13:42:36.240Z,5.02
2023-06-07T13:43:51.304Z,4.99
2023-06-07T13:44:36.225Z,5.00
2023-06-07T13:45:36.234Z,5.03
2023-06-07T13:46:35.274Z,5.13
2023-06-07T13:47:35.291Z,5.21
2023-06-07T13:48:35.213Z,5.36
2023-06-07T13:49:36.193Z,5.51
2023-06-07T13:50:36.156Z,5.61
2023-06-07T13:51:35.214Z,5.65
2023-06-07T13:52:36.169Z,5.67
2023-06-07T13:53:35.200Z,5.76
2023-06-07T13:54:36.227Z,5.73
2023-06-07T13:55:36.124Z,5.66
2023-06-07T13:56:36.139Z,5.86
2023-06-07T13:57:35.114Z,5.80
2023-06-07T13:58:35.150Z,6.05
2023-06-07T13:59:36.180Z,5.84
2023-06-07T14:00:35.216Z,5.95
2023-06-07T14:01:35.353Z,5.91
2023-06-07T14:02:36.507Z,6.09
2023-06-07T14:03:36.484Z,6.12
2023-06-07T14:04:36.402Z,6.15
2023-06-07T14:05:36.579Z,6.23
2023-06-07T14:06:35.356Z,6.11
2023-06-07T14:07:35.441Z,6.11
2023-06-07T14:08:35.418Z,6.19
2023-06-07T14:09:36.544Z,6.04
2023-06-07T14:10:35.591Z,6.18
2023-06-07T14:11:36.521Z,6.20
2023-06-07T14:12:35.520Z,6.27
2023-06-07T14:13:36.556Z,6.29
2023-06-07T14:14:36.602Z,6.22
2023-06-07T14:15:35.614Z,6.39
2023-06-07T14:16:36.700Z,6.39
2023-06-07T14:17:35.694Z,6.25
2023-06-07T14:18:35.683Z,6.32
2023-06-07T14:19:35.755Z,6.39
2023-06-07T14:20:35.754Z,6.47
2023-06-07T14:21:36.799Z,6.33
2023-06-07T14:22:36.788Z,6.59
2023-06-07T14:23:36.811Z,6.54
2023-06-07T14:24:35.843Z,6.51
2023-06-07T14:25:35.869Z,6.41
2023-06-07T14:26:36.891Z,6.41
2023-06-07T14:27:36.888Z,6.57
2023-06-07T14:28:35.953Z,6.49
2023-06-07T14:29:36.929Z,6.42
2023-06-07T14:30:36.946Z,6.46
2023-06-07T14:31:37.034Z,6.43
2023-06-07T14:32:36.988Z,6.52
2023-06-07T14:33:36.967Z,6.43
2023-06-07T14:34:36.983Z,6.50
2023-06-07T14:35:37.018Z,6.39
2023-06-07T14:36:37.783Z,6.42
2023-06-07T14:37:36.999Z,6.53
2023-06-07T14:38:37.045Z,6.58
2023-06-07T14:39:37.032Z,6.59
2023-06-07T14:40:36.990Z,6.62
2023-06-07T14:41:36.969Z,6.36
2023-06-07T14:42:37.112Z,6.68
2023-06-07T14:43:35.966Z,6.58
2023-06-07T14:44:35.965Z,6.59
2023-06-07T14:45:36.017Z,6.39
2023-06-07T14:46:35.940Z,6.43
2023-06-07T14:47:35.944Z,6.50
2023-06-07T14:48:36.941Z,6.40
2023-06-07T14:49:35.914Z,6.52
2023-06-07T14:50:35.924Z,6.33
2023-06-07T14:51:35.934Z,6.56
2023-06-07T14:52:36.895Z,6.40
2023-06-07T14:53:36.915Z,6.39
2023-06-07T14:54:36.901Z,6.48
2023-06-07T14:55:35.888Z,6.40
2023-06-07T14:56:35.869Z,6.28
2023-06-07T14:57:35.861Z,6.46
2023-06-07T14:58:35.851Z,6.17
2023-06-07T14:59:37.089Z,6.39
2023-06-07T15:00:35.864Z,6.36
2023-06-07T15:01:35.869Z,6.28
2023-06-07T15:02:35.848Z,6.36
2023-06-07T15:03:35.907Z,6.25
2023-06-07T15:04:35.831Z,6.29
2023-06-07T15:05:36.804Z,6.24
2023-06-07T15:06:35.785Z,6.06
2023-06-07T15:07:35.828Z,6.30
2023-06-07T15:08:35.810Z,6.33
2023-06-07T15:09:35.809Z,6.25
2023-06-07T15:10:35.800Z,6.29
2023-06-07T15:11:36.816Z,6.19
2023-06-07T15:12:35.761Z,6.06
2023-06-07T15:13:36.767Z,6.23
2023-06-07T15:14:35.746Z,6.27
2023-06-07T15:15:36.761Z,6.30
2023-06-07T15:16:36.841Z,6.26
2023-06-07T15:17:36.756Z,6.14
2023-06-07T15:18:35.723Z,5.97
2023-06-07T15:19:36.711Z,6.14
2023-06-07T15:20:35.688Z,6.19
2023-06-07T15:21:35.734Z,6.09
2023-06-07T15:22:36.710Z,6.14
2023-06-07T15:23:35.731Z,6.11
2023-06-07T15:24:35.684Z,6.09
2023-06-07T15:25:35.679Z,6.09
2023-06-07T15:26:36.656Z,6.07
2023-06-07T15:27:35.637Z,6.05
2023-06-07T15:28:36.648Z,6.22
2023-06-07T15:29:36.665Z,6.00
2023-06-07T15:30:35.629Z,5.99
2023-06-07T15:31:36.645Z,5.98
2023-06-07T15:32:35.676Z,6.10
2023-06-07T15:33:35.600Z,6.05
2023-06-07T15:34:36.589Z,6.12
2023-06-07T15:35:36.601Z,5.92
2023-06-07T15:36:36.605Z,5.96
2023-06-07T15:37:35.574Z,5.96
2023-06-07T15:38:35.562Z,5.87
2023-06-07T15:39:36.602Z,5.85
2023-06-07T15:40:35.561Z,5.90
2023-06-07T15:41:36.564Z,6.05
2023-06-07T15:42:36.542Z,6.01
2023-06-07T15:43:36.561Z,5.93
2023-06-07T15:44:36.530Z,5.90
2023-06-07T15:45:36.545Z,6.13
2023-06-07T15:46:38.261Z,5.84
2023-06-07T15:47:35.579Z,5.84
2023-06-07T15:48:36.513Z,5.85
2023-06-07T15:49:36.494Z,5.89
2023-06-07T15:50:35.502Z,5.95
2023-06-07T15:51:35.480Z,5.81
2023-06-07T15:52:36.486Z,5.81
2023-06-07T15:53:36.475Z,5.94
2023-06-07T15:54:35.487Z,5.95
2023-06-07T15:55:35.552Z,5.82
2023-06-07T15:56:36.445Z,5.92
2023-06-07T15:57:35.435Z,5.87
2023-06-07T15:58:35.442Z,5.85
2023-06-07T15:59:36.428Z,6.05
2023-06-07T16:00:38.861Z,5.76
2023-06-07T16:01:36.480Z,5.77
2023-06-07T16:02:36.415Z,5.79
2023-06-07T16:03:50.670Z,5.79
2023-06-07T16:04:36.494Z,5.77
2023-06-07T16:05:36.384Z,5.79
2023-06-07T16:06:36.374Z,5.84
2023-06-07T16:07:36.387Z,5.87
2023-06-07T16:08:35.344Z,5.82
2023-06-07T16:09:35.343Z,5.86
2023-06-07T16:10:36.325Z,5.77
2023-06-07T16:11:35.359Z,5.82
2023-06-07T16:12:36.315Z,5.62
2023-06-07T16:13:36.318Z,5.67
2023-06-07T16:14:36.330Z,5.66
2023-06-07T16:15:35.285Z,5.68
2023-06-07T16:16:36.398Z,5.71
2023-06-07T16:17:36.350Z,5.68
2023-06-07T16:18:35.293Z,5.75
2023-06-07T16:19:35.288Z,5.73
2023-06-07T16:20:36.258Z,5.68
2023-06-07T16:21:35.256Z,5.75
2023-06-07T16:22:35.259Z,5.65
2023-06-07T16:23:35.282Z,5.73
2023-06-07T16:24:35.271Z,5.74
2023-06-07T16:25:36.385Z,5.69
2023-06-07T16:26:35.235Z,5.73
2023-06-07T16:27:35.234Z,5.81
2023-06-07T16:28:35.199Z,5.75
2023-06-07T16:29:35.213Z,5.89
2023-06-07T16:30:37.955Z,5.71
2023-06-07T16:31:36.314Z,5.72
2023-06-07T16:32:36.209Z,5.75
2023-06-07T16:33:36.171Z,5.74
2023-06-07T16:34:36.163Z,5.68
2023-06-07T16:35:36.163Z,5.69
2023-06-07T16:36:35.160Z,5.77
2023-06-07T16:37:35.152Z,5.74
2023-06-07T16:38:36.143Z,5.63
2023-06-07T16:39:35.148Z,5.72
2023-06-07T16:40:35.122Z,5.75
2023-06-07T16:42:35.136Z,5.50
2023-06-07T16:43:35.145Z,5.51
2023-06-07T16:44:35.181Z,5.57
2023-06-07T16:45:36.089Z,5.53
2023-06-07T16:46:36.126Z,5.60
2023-06-07T16:47:35.122Z,5.43
2023-06-07T16:48:36.073Z,5.57
2023-06-07T16:49:35.113Z,5.57
2023-06-07T16:50:36.047Z,5.44
2023-06-07T16:51:35.043Z,5.54
2023-06-07T16:52:35.027Z,5.64
2023-06-07T16:53:36.049Z,5.54
2023-06-07T16:54:35.039Z,5.46
2023-06-07T16:55:35.366Z,5.50
2023-06-07T16:56:36.006Z,5.64
2023-06-07T16:57:38.850Z,5.64
2023-06-07T16:58:34.996Z,5.65
2023-06-07T16:59:35.018Z,5.63
2023-06-07T17:00:35.987Z,5.67
2023-06-07T17:01:36.049Z,5.59
2023-06-07T17:02:35.163Z,5.66
2023-06-07T17:03:36.077Z,5.57
2023-06-07T17:04:34.954Z,5.62
2023-06-07T17:05:34.987Z,5.60
2023-06-07T17:06:34.948Z,5.49
2023-06-07T17:07:34.931Z,5.45
2023-06-07T17:08:34.950Z,5.42
2023-06-07T17:09:35.918Z,5.37
2023-06-07T17:10:35.919Z,5.42
2023-06-07T17:11:35.894Z,5.37
2023-06-07T17:12:35.903Z,5.31
2023-06-07T17:13:34.888Z,5.44
2023-06-07T17:14:35.895Z,5.57
2023-06-07T17:15:35.904Z,5.46
2023-06-07T17:16:35.947Z,5.44
2023-06-07T17:17:36.026Z,5.43
2023-06-07T17:18:34.862Z,5.42
2023-06-07T17:19:34.856Z,5.32
2023-06-07T17:20:34.870Z,5.37
2023-06-07T17:21:35.861Z,5.25
2023-06-07T17:22:34.818Z,5.32
2023-06-07T17:23:35.861Z,5.42
2023-06-07T17:24:35.903Z,5.35
2023-06-07T17:25:34.848Z,5.32
2023-06-07T17:26:35.881Z,5.37
2023-06-07T17:27:34.902Z,5.41
2023-06-07T17:28:35.916Z,5.28
2023-06-07T17:29:34.948Z,5.36
2023-06-07T17:30:34.944Z,5.29
2023-06-07T17:31:36.032Z,5.28
2023-06-07T17:32:36.096Z,5.23
2023-06-07T17:33:35.003Z,5.16
2023-06-07T17:34:36.028Z,5.25
2023-06-07T17:35:35.020Z,5.15
2023-06-07T17:36:35.031Z,5.08
2023-06-07T17:37:36.059Z,5.16
2023-06-07T17:38:36.074Z,5.16
2023-06-07T17:39:35.116Z,5.08
2023-06-07T17:40:36.103Z,5.12
2023-06-07T17:41:36.115Z,5.14
2023-06-07T17:42:35.159Z,5.27
2023-06-07T17:43:36.172Z,5.10
2023-06-07T17:44:36.218Z,5.23
2023-06-07T17:45:35.232Z,5.19
2023-06-07T17:46:35.345Z,5.16
2023-06-07T17:47:36.296Z,5.13
2023-06-07T17:48:36.266Z,5.10
2023-06-07T17:49:36.283Z,5.11
2023-06-07T17:51:36.299Z,5.02
2023-06-07T17:52:35.306Z,5.06
2023-06-07T17:53:35.300Z,5.06
2023-06-07T17:54:35.295Z,5.12
2023-06-07T17:55:35.293Z,5.13
2023-06-07T17:56:36.288Z,5.12
2023-06-07T17:57:35.270Z,5.16
2023-06-07T17:58:36.278Z,5.20
2023-06-07T17:59:36.304Z,5.11
2023-06-07T18:00:35.225Z,5.05
2023-06-07T18:01:36.265Z,5.23
2023-06-07T18:02:35.269Z,5.16
2023-06-07T18:03:36.343Z,5.07
2023-06-07T18:04:36.228Z,5.08
2023-06-07T18:05:35.218Z,5.08
2023-06-07T18:06:35.205Z,5.13
2023-06-07T18:07:36.249Z,5.02
2023-06-07T18:08:36.193Z,5.10
2023-06-07T18:09:35.179Z,5.10
2023-06-07T18:10:36.212Z,5.18
2023-06-07T18:11:35.167Z,5.04
2023-06-07T18:12:35.177Z,5.05
2023-06-07T18:13:35.150Z,5.01
2023-06-07T18:14:35.153Z,4.93
2023-06-07T18:15:35.136Z,5.01
2023-06-07T18:16:35.233Z,5.01
2023-06-07T18:17:36.152Z,5.07
2023-06-07T18:18:36.128Z,4.95
2023-06-07T18:19:35.144Z,5.06
2023-06-07T18:20:35.141Z,5.13
2023-06-07T18:21:35.100Z,4.92
2023-06-07T18:22:36.085Z,5.05
2023-06-07T18:23:36.111Z,5.04
2023-06-07T18:24:35.065Z,5.07
2023-06-07T18:25:36.214Z,5.16
2023-06-07T18:26:36.080Z,5.18
2023-06-07T18:27:35.217Z,5.19
2023-06-07T18:28:36.045Z,5.00
2023-06-07T18:29:35.032Z,5.04
2023-06-07T18:30:36.034Z,5.11
2023-06-07T18:31:36.075Z,5.12
2023-06-07T18:32:35.045Z,5.09
2023-06-07T18:33:36.039Z,5.10
2023-06-07T18:34:35.388Z,5.30
2023-06-07T18:35:35.103Z,5.13
2023-06-07T18:36:35.118Z,5.26
2023-06-07T18:37:35.127Z,5.42
2023-06-07T18:38:35.175Z,5.53
2023-06-07T18:39:36.223Z,5.53
2023-06-07T18:40:36.269Z,5.43
2023-06-07T18:41:36.292Z,5.42
2023-06-07T18:42:36.334Z,5.44
2023-06-07T18:43:36.380Z,5.53
2023-06-07T18:44:36.416Z,5.37
2023-06-07T18:45:36.535Z,5.45
2023-06-07T18:46:35.624Z,5.41
2023-06-07T18:47:36.694Z,5.53
2023-06-07T18:48:35.681Z,5.47
2023-06-07T18:49:35.646Z,5.59
2023-06-07T18:50:36.689Z,5.64
2023-06-07T18:51:35.778Z,5.65